This is the latest recevied weather packets stored in our database for station/object WX7EM. If no packets are shown the sender has not sent any weather packets the latest 10 day(s).
| Time | Temp. | Humidity | Pressure | Rain* | Wind** | Luminosity | Snow |
|---|---|---|---|---|---|---|---|
| 1777426075 | 16.67° C | 50% | 1021.3 hPa | 0 mm | - | 108 W/m² | - |
| 1777425771 | 16.67° C | 50% | 1021.5 hPa | 0 mm | - | 139 W/m² | - |
| 1777425465 | 16.11° C | 51% | 1021.5 hPa | 0 mm | - | 144 W/m² | - |
| 1777425162 | 16.67° C | 50% | 1021.5 hPa | 0 mm | - | 149 W/m² | - |
| 1777424858 | 16.67° C | 51% | 1021.6 hPa | 0 mm | - | 164 W/m² | - |
| 1777424554 | 16.67° C | 51% | 1021.6 hPa | 0 mm | - | 176 W/m² | - |
| 1777424250 | 16.67° C | 50% | 1021.4 hPa | 0 mm | - | 191 W/m² | - |
| 1777423946 | 16.67° C | 51% | 1021.4 hPa | 0 mm | - | 204 W/m² | - |
| 1777423642 | 17.22° C | 50% | 1021.6 hPa | 0 mm | - | 222 W/m² | - |
| 1777423338 | 16.67° C | 51% | 1021.5 hPa | 0 mm | - | 229 W/m² | - |
| 1777423033 | 16.67° C | 50% | 1021.4 hPa | 0 mm | - | 155 W/m² | - |
| 1777422730 | 16.11° C | 51% | 1021.7 hPa | 0 mm | - | 177 W/m² | - |
| 1777422424 | 16.67° C | 50% | 1021.7 hPa | 0 mm | - | 275 W/m² | - |
| 1777422119 | 16.11° C | 52% | 1021.7 hPa | 0 mm | - | 223 W/m² | - |
| 1777421818 | 16.11° C | 52% | 1021.5 hPa | 0 mm | - | 178 W/m² | - |
| 1777421514 | 16.11° C | 52% | 1021.6 hPa | 0 mm | - | 181 W/m² | - |
| 1777421210 | 15.56° C | 53% | 1021.6 hPa | 0 mm | - | 173 W/m² | - |
| 1777420907 | 15.56° C | 53% | 1021.7 hPa | 0 mm | - | 182 W/m² | - |
| 1777420603 | 16.11° C | 51% | 1021.6 hPa | 0 mm | - | 158 W/m² | - |
| 1777420300 | 16.67° C | 53% | 1021.6 hPa | 0 mm | - | 193 W/m² | - |
| 1777419995 | 16.11° C | 53% | 1021.7 hPa | 0 mm | - | 121 W/m² | - |
| 1777419692 | 16.11° C | 55% | 1021.7 hPa | 0 mm | - | 114 W/m² | - |
| 1777419390 | 16.67° C | 53% | 1021.6 hPa | 0 mm | - | 226 W/m² | - |
| 1777419090 | 16.11° C | 55% | 1021.5 hPa | 0 mm | - | 131 W/m² | - |
| 1777418788 | 16.11° C | 53% | 1021.8 hPa | 0 mm | - | 100 W/m² | - |
* Rain latest hour (hover to see other rain measurements)
** Current wind speed in m/s (hover to see current wind gust speed)